sensor_id;sensor_type;location;lat;lon;timestamp;P1;durP1;ratioP1;P2;durP2;ratioP2
11709;SDS011;5911;51.036;6.972;2023-04-06T00:01:59;13.40;;;10.03;;
11709;SDS011;5911;51.036;6.972;2023-04-06T00:06:58;11.50;;;9.17;;
11709;SDS011;5911;51.036;6.972;2023-04-06T00:09:26;9.90;;;8.90;;
11709;SDS011;5911;51.036;6.972;2023-04-06T00:11:53;11.07;;;9.80;;
11709;SDS011;5911;51.036;6.972;2023-04-06T00:14:21;11.33;;;9.03;;
11709;SDS011;5911;51.036;6.972;2023-04-06T00:16:49;12.60;;;9.70;;
11709;SDS011;5911;51.036;6.972;2023-04-06T00:19:17;12.97;;;9.20;;
11709;SDS011;5911;51.036;6.972;2023-04-06T00:21:46;13.07;;;9.27;;
11709;SDS011;5911;51.036;6.972;2023-04-06T00:24:14;11.30;;;9.10;;
11709;SDS011;5911;51.036;6.972;2023-04-06T00:26:42;11.03;;;8.57;;
11709;SDS011;5911;51.036;6.972;2023-04-06T00:29:10;13.20;;;9.70;;
11709;SDS011;5911;51.036;6.972;2023-04-06T00:31:38;12.40;;;9.97;;
11709;SDS011;5911;51.036;6.972;2023-04-06T00:34:06;10.93;;;9.37;;
11709;SDS011;5911;51.036;6.972;2023-04-06T00:36:34;11.20;;;9.00;;
11709;SDS011;5911;51.036;6.972;2023-04-06T00:39:03;10.77;;;8.93;;
11709;SDS011;5911;51.036;6.972;2023-04-06T00:41:32;14.23;;;10.37;;
11709;SDS011;5911;51.036;6.972;2023-04-06T00:44:00;15.53;;;11.07;;
11709;SDS011;5911;51.036;6.972;2023-04-06T00:46:28;18.20;;;11.57;;
11709;SDS011;5911;51.036;6.972;2023-04-06T00:48:56;12.40;;;10.47;;
11709;SDS011;5911;51.036;6.972;2023-04-06T00:51:24;14.97;;;10.13;;
11709;SDS011;5911;51.036;6.972;2023-04-06T00:53:53;13.77;;;10.70;;
11709;SDS011;5911;51.036;6.972;2023-04-06T00:56:23;15.73;;;11.20;;
11709;SDS011;5911;51.036;6.972;2023-04-06T00:58:53;15.07;;;11.67;;
11709;SDS011;5911;51.036;6.972;2023-04-06T01:01:21;15.27;;;11.03;;
11709;SDS011;5911;51.036;6.972;2023-04-06T01:03:52;14.90;;;11.87;;
11709;SDS011;5911;51.036;6.972;2023-04-06T01:06:22;16.33;;;11.77;;
11709;SDS011;5911;51.036;6.972;2023-04-06T01:08:57;13.13;;;9.93;;
11709;SDS011;5911;51.036;6.972;2023-04-06T01:11:27;12.17;;;9.70;;
11709;SDS011;5911;51.036;6.972;2023-04-06T01:13:55;12.83;;;9.60;;
11709;SDS011;5911;51.036;6.972;2023-04-06T01:16:32;12.73;;;9.23;;
11709;SDS011;5911;51.036;6.972;2023-04-06T01:19:09;14.80;;;9.63;;
11709;SDS011;5911;51.036;6.972;2023-04-06T01:21:43;13.77;;;9.27;;
11709;SDS011;5911;51.036;6.972;2023-04-06T01:24:25;11.57;;;9.00;;
11709;SDS011;5911;51.036;6.972;2023-04-06T01:27:02;12.67;;;9.23;;
11709;SDS011;5911;51.036;6.972;2023-04-06T01:29:54;11.93;;;9.60;;
11709;SDS011;5911;51.036;6.972;2023-04-06T01:32:39;12.47;;;8.77;;
11709;SDS011;5911;51.036;6.972;2023-04-06T01:35:10;10.37;;;9.03;;
11709;SDS011;5911;51.036;6.972;2023-04-06T01:37:45;10.10;;;9.03;;
11709;SDS011;5911;51.036;6.972;2023-04-06T01:40:22;13.37;;;8.80;;
11709;SDS011;5911;51.036;6.972;2023-04-06T01:42:51;11.77;;;8.90;;
11709;SDS011;5911;51.036;6.972;2023-04-06T01:45:28;10.67;;;8.70;;
11709;SDS011;5911;51.036;6.972;2023-04-06T01:48:02;10.87;;;9.30;;
11709;SDS011;5911;51.036;6.972;2023-04-06T01:50:30;10.97;;;9.17;;
11709;SDS011;5911;51.036;6.972;2023-04-06T01:52:58;10.90;;;9.03;;
11709;SDS011;5911;51.036;6.972;2023-04-06T01:55:30;11.53;;;9.40;;
11709;SDS011;5911;51.036;6.972;2023-04-06T01:58:23;10.97;;;9.00;;
11709;SDS011;5911;51.036;6.972;2023-04-06T02:00:52;11.43;;;8.83;;
11709;SDS011;5911;51.036;6.972;2023-04-06T02:03:20;13.30;;;9.30;;
11709;SDS011;5911;51.036;6.972;2023-04-06T02:05:57;10.00;;;8.90;;
11709;SDS011;5911;51.036;6.972;2023-04-06T02:08:32;10.23;;;8.57;;
11709;SDS011;5911;51.036;6.972;2023-04-06T02:11:01;12.83;;;9.13;;
11709;SDS011;5911;51.036;6.972;2023-04-06T02:13:36;11.30;;;8.90;;
11709;SDS011;5911;51.036;6.972;2023-04-06T02:16:04;11.63;;;9.07;;
11709;SDS011;5911;51.036;6.972;2023-04-06T02:18:33;13.23;;;10.00;;
11709;SDS011;5911;51.036;6.972;2023-04-06T02:21:01;12.87;;;9.73;;
11709;SDS011;5911;51.036;6.972;2023-04-06T02:23:29;11.67;;;8.93;;
11709;SDS011;5911;51.036;6.972;2023-04-06T02:25:57;12.77;;;9.80;;
11709;SDS011;5911;51.036;6.972;2023-04-06T02:28:26;14.37;;;8.57;;
11709;SDS011;5911;51.036;6.972;2023-04-06T02:30:54;12.43;;;9.30;;
11709;SDS011;5911;51.036;6.972;2023-04-06T02:33:25;11.27;;;9.23;;
11709;SDS011;5911;51.036;6.972;2023-04-06T02:35:53;10.17;;;8.77;;
11709;SDS011;5911;51.036;6.972;2023-04-06T02:38:22;13.10;;;9.63;;
11709;SDS011;5911;51.036;6.972;2023-04-06T02:40:51;12.43;;;8.47;;
11709;SDS011;5911;51.036;6.972;2023-04-06T02:43:25;9.57;;;8.53;;
11709;SDS011;5911;51.036;6.972;2023-04-06T02:46:13;12.03;;;9.20;;
11709;SDS011;5911;51.036;6.972;2023-04-06T02:48:41;11.03;;;9.77;;
11709;SDS011;5911;51.036;6.972;2023-04-06T02:51:09;9.63;;;8.63;;
11709;SDS011;5911;51.036;6.972;2023-04-06T02:53:40;10.00;;;8.87;;
11709;SDS011;5911;51.036;6.972;2023-04-06T02:56:08;10.40;;;8.10;;
11709;SDS011;5911;51.036;6.972;2023-04-06T02:58:45;9.57;;;8.47;;
11709;SDS011;5911;51.036;6.972;2023-04-06T03:01:13;11.83;;;9.03;;
11709;SDS011;5911;51.036;6.972;2023-04-06T03:03:42;14.63;;;9.50;;
11709;SDS011;5911;51.036;6.972;2023-04-06T03:06:17;9.50;;;8.50;;
11709;SDS011;5911;51.036;6.972;2023-04-06T03:08:47;11.03;;;9.20;;
11709;SDS011;5911;51.036;6.972;2023-04-06T03:11:16;10.77;;;8.77;;
11709;SDS011;5911;51.036;6.972;2023-04-06T03:13:45;12.27;;;9.20;;
11709;SDS011;5911;51.036;6.972;2023-04-06T03:16:13;12.33;;;9.03;;
11709;SDS011;5911;51.036;6.972;2023-04-06T03:18:42;12.40;;;8.87;;
11709;SDS011;5911;51.036;6.972;2023-04-06T03:21:12;11.03;;;8.27;;
11709;SDS011;5911;51.036;6.972;2023-04-06T03:23:49;13.77;;;9.03;;
11709;SDS011;5911;51.036;6.972;2023-04-06T03:26:17;14.60;;;8.87;;
11709;SDS011;5911;51.036;6.972;2023-04-06T03:28:47;11.70;;;9.93;;
11709;SDS011;5911;51.036;6.972;2023-04-06T03:31:15;14.33;;;8.93;;
11709;SDS011;5911;51.036;6.972;2023-04-06T03:33:55;11.27;;;9.13;;
11709;SDS011;5911;51.036;6.972;2023-04-06T03:36:30;13.60;;;8.83;;
11709;SDS011;5911;51.036;6.972;2023-04-06T03:38:59;10.73;;;8.90;;
11709;SDS011;5911;51.036;6.972;2023-04-06T03:41:29;13.30;;;9.70;;
11709;SDS011;5911;51.036;6.972;2023-04-06T03:44:25;11.23;;;8.80;;
11709;SDS011;5911;51.036;6.972;2023-04-06T03:46:53;12.40;;;9.50;;
11709;SDS011;5911;51.036;6.972;2023-04-06T03:49:21;10.90;;;8.83;;
11709;SDS011;5911;51.036;6.972;2023-04-06T03:51:52;15.40;;;9.10;;
11709;SDS011;5911;51.036;6.972;2023-04-06T03:54:20;11.70;;;8.87;;
11709;SDS011;5911;51.036;6.972;2023-04-06T03:56:48;14.53;;;9.53;;
11709;SDS011;5911;51.036;6.972;2023-04-06T03:59:16;11.97;;;9.13;;
11709;SDS011;5911;51.036;6.972;2023-04-06T04:01:46;10.50;;;8.93;;
11709;SDS011;5911;51.036;6.972;2023-04-06T04:04:14;11.93;;;9.57;;
11709;SDS011;5911;51.036;6.972;2023-04-06T04:06:42;12.47;;;9.77;;
11709;SDS011;5911;51.036;6.972;2023-04-06T04:09:10;10.13;;;8.77;;
11709;SDS011;5911;51.036;6.972;2023-04-06T04:11:38;10.33;;;8.47;;
11709;SDS011;5911;51.036;6.972;2023-04-06T04:14:06;11.10;;;8.40;;
11709;SDS011;5911;51.036;6.972;2023-04-06T04:16:34;9.43;;;8.53;;
11709;SDS011;5911;51.036;6.972;2023-04-06T04:19:03;11.47;;;9.63;;
11709;SDS011;5911;51.036;6.972;2023-04-06T04:21:31;11.87;;;8.37;;
11709;SDS011;5911;51.036;6.972;2023-04-06T04:24:07;11.40;;;8.90;;
11709;SDS011;5911;51.036;6.972;2023-04-06T04:26:36;10.90;;;8.77;;
11709;SDS011;5911;51.036;6.972;2023-04-06T04:29:05;11.27;;;9.07;;
11709;SDS011;5911;51.036;6.972;2023-04-06T04:31:35;12.27;;;8.80;;
11709;SDS011;5911;51.036;6.972;2023-04-06T04:34:10;10.83;;;8.47;;
11709;SDS011;5911;51.036;6.972;2023-04-06T04:36:38;11.70;;;9.07;;
11709;SDS011;5911;51.036;6.972;2023-04-06T04:39:11;10.83;;;8.57;;
11709;SDS011;5911;51.036;6.972;2023-04-06T04:41:43;9.80;;;8.37;;
11709;SDS011;5911;51.036;6.972;2023-04-06T04:44:12;11.23;;;8.73;;
11709;SDS011;5911;51.036;6.972;2023-04-06T04:46:41;10.03;;;8.73;;
11709;SDS011;5911;51.036;6.972;2023-04-06T04:49:12;10.93;;;8.30;;
11709;SDS011;5911;51.036;6.972;2023-04-06T04:51:40;10.57;;;7.87;;
11709;SDS011;5911;51.036;6.972;2023-04-06T04:54:16;9.80;;;8.43;;
11709;SDS011;5911;51.036;6.972;2023-04-06T04:56:44;12.53;;;8.93;;
11709;SDS011;5911;51.036;6.972;2023-04-06T04:59:31;12.33;;;8.90;;
11709;SDS011;5911;51.036;6.972;2023-04-06T05:02:08;13.07;;;9.00;;
11709;SDS011;5911;51.036;6.972;2023-04-06T05:04:47;11.73;;;8.67;;
11709;SDS011;5911;51.036;6.972;2023-04-06T05:07:20;10.10;;;8.37;;
11709;SDS011;5911;51.036;6.972;2023-04-06T05:09:50;10.60;;;8.53;;
11709;SDS011;5911;51.036;6.972;2023-04-06T05:12:19;11.83;;;9.47;;
11709;SDS011;5911;51.036;6.972;2023-04-06T05:14:58;9.50;;;8.17;;
11709;SDS011;5911;51.036;6.972;2023-04-06T05:17:26;17.37;;;9.23;;
11709;SDS011;5911;51.036;6.972;2023-04-06T05:19:57;10.43;;;8.67;;
11709;SDS011;5911;51.036;6.972;2023-04-06T05:22:26;10.33;;;8.30;;
11709;SDS011;5911;51.036;6.972;2023-04-06T05:25:04;11.17;;;8.03;;
11709;SDS011;5911;51.036;6.972;2023-04-06T05:27:32;10.23;;;7.93;;
11709;SDS011;5911;51.036;6.972;2023-04-06T05:30:06;8.27;;;7.43;;
11709;SDS011;5911;51.036;6.972;2023-04-06T05:32:44;10.23;;;7.70;;
11709;SDS011;5911;51.036;6.972;2023-04-06T05:35:14;9.20;;;7.57;;
11709;SDS011;5911;51.036;6.972;2023-04-06T05:37:47;8.67;;;7.73;;
11709;SDS011;5911;51.036;6.972;2023-04-06T05:40:15;14.00;;;7.67;;
11709;SDS011;5911;51.036;6.972;2023-04-06T05:42:45;8.47;;;7.00;;
11709;SDS011;5911;51.036;6.972;2023-04-06T05:45:15;10.00;;;7.90;;
11709;SDS011;5911;51.036;6.972;2023-04-06T05:47:50;11.27;;;7.40;;
11709;SDS011;5911;51.036;6.972;2023-04-06T05:50:24;9.07;;;8.10;;
11709;SDS011;5911;51.036;6.972;2023-04-06T05:52:52;8.27;;;7.30;;
11709;SDS011;5911;51.036;6.972;2023-04-06T05:55:23;10.00;;;7.63;;
11709;SDS011;5911;51.036;6.972;2023-04-06T05:58:03;9.00;;;7.60;;
11709;SDS011;5911;51.036;6.972;2023-04-06T06:00:31;10.70;;;6.97;;
11709;SDS011;5911;51.036;6.972;2023-04-06T06:03:04;9.13;;;7.00;;
11709;SDS011;5911;51.036;6.972;2023-04-06T06:05:35;15.00;;;8.93;;
11709;SDS011;5911;51.036;6.972;2023-04-06T06:08:10;10.67;;;9.03;;
11709;SDS011;5911;51.036;6.972;2023-04-06T06:10:39;14.87;;;9.83;;
11709;SDS011;5911;51.036;6.972;2023-04-06T06:13:10;12.40;;;8.77;;
11709;SDS011;5911;51.036;6.972;2023-04-06T06:15:38;14.47;;;9.57;;
11709;SDS011;5911;51.036;6.972;2023-04-06T06:18:06;11.93;;;9.30;;
11709;SDS011;5911;51.036;6.972;2023-04-06T06:20:36;17.67;;;10.13;;
11709;SDS011;5911;51.036;6.972;2023-04-06T06:23:04;14.93;;;10.33;;
11709;SDS011;5911;51.036;6.972;2023-04-06T06:25:34;15.07;;;9.73;;
11709;SDS011;5911;51.036;6.972;2023-04-06T06:28:07;14.17;;;10.00;;
11709;SDS011;5911;51.036;6.972;2023-04-06T06:30:38;12.17;;;8.83;;
11709;SDS011;5911;51.036;6.972;2023-04-06T06:33:08;11.20;;;8.13;;
11709;SDS011;5911;51.036;6.972;2023-04-06T06:35:38;8.60;;;7.20;;
11709;SDS011;5911;51.036;6.972;2023-04-06T06:38:06;10.43;;;8.07;;
11709;SDS011;5911;51.036;6.972;2023-04-06T06:40:34;10.43;;;8.23;;
11709;SDS011;5911;51.036;6.972;2023-04-06T06:43:03;10.23;;;8.03;;
11709;SDS011;5911;51.036;6.972;2023-04-06T06:45:35;12.13;;;7.93;;
11709;SDS011;5911;51.036;6.972;2023-04-06T06:48:03;11.03;;;8.63;;
11709;SDS011;5911;51.036;6.972;2023-04-06T06:50:31;12.37;;;9.27;;
11709;SDS011;5911;51.036;6.972;2023-04-06T06:53:00;16.60;;;9.37;;
11709;SDS011;5911;51.036;6.972;2023-04-06T06:55:28;14.03;;;8.53;;
11709;SDS011;5911;51.036;6.972;2023-04-06T06:57:59;11.80;;;8.20;;
11709;SDS011;5911;51.036;6.972;2023-04-06T07:00:27;16.53;;;9.90;;
11709;SDS011;5911;51.036;6.972;2023-04-06T07:02:56;14.40;;;10.33;;
11709;SDS011;5911;51.036;6.972;2023-04-06T07:05:24;11.80;;;8.77;;
11709;SDS011;5911;51.036;6.972;2023-04-06T07:07:56;12.93;;;9.30;;
11709;SDS011;5911;51.036;6.972;2023-04-06T07:10:26;17.40;;;10.60;;
11709;SDS011;5911;51.036;6.972;2023-04-06T07:12:54;14.77;;;9.80;;
11709;SDS011;5911;51.036;6.972;2023-04-06T07:15:22;14.30;;;8.20;;
11709;SDS011;5911;51.036;6.972;2023-04-06T07:17:51;12.97;;;8.80;;
11709;SDS011;5911;51.036;6.972;2023-04-06T07:20:21;11.43;;;8.47;;
11709;SDS011;5911;51.036;6.972;2023-04-06T07:22:49;11.13;;;8.50;;
11709;SDS011;5911;51.036;6.972;2023-04-06T07:25:17;12.53;;;8.00;;
11709;SDS011;5911;51.036;6.972;2023-04-06T07:27:46;11.77;;;8.30;;
11709;SDS011;5911;51.036;6.972;2023-04-06T07:30:15;12.03;;;8.40;;
11709;SDS011;5911;51.036;6.972;2023-04-06T07:32:44;10.73;;;8.13;;
11709;SDS011;5911;51.036;6.972;2023-04-06T07:35:16;13.43;;;8.87;;
11709;SDS011;5911;51.036;6.972;2023-04-06T07:37:44;11.97;;;8.87;;
11709;SDS011;5911;51.036;6.972;2023-04-06T07:40:12;13.83;;;8.20;;
11709;SDS011;5911;51.036;6.972;2023-04-06T07:42:43;13.30;;;8.20;;
11709;SDS011;5911;51.036;6.972;2023-04-06T07:45:13;13.57;;;9.00;;
11709;SDS011;5911;51.036;6.972;2023-04-06T07:47:42;12.97;;;8.80;;
11709;SDS011;5911;51.036;6.972;2023-04-06T07:50:11;11.77;;;9.10;;
11709;SDS011;5911;51.036;6.972;2023-04-06T07:52:39;15.03;;;9.90;;
11709;SDS011;5911;51.036;6.972;2023-04-06T07:55:08;17.00;;;10.03;;
11709;SDS011;5911;51.036;6.972;2023-04-06T07:57:36;11.60;;;8.40;;
11709;SDS011;5911;51.036;6.972;2023-04-06T08:00:04;12.57;;;8.80;;
11709;SDS011;5911;51.036;6.972;2023-04-06T08:02:41;15.10;;;8.83;;
11709;SDS011;5911;51.036;6.972;2023-04-06T08:05:09;17.63;;;9.70;;
11709;SDS011;5911;51.036;6.972;2023-04-06T08:07:37;11.10;;;8.90;;
11709;SDS011;5911;51.036;6.972;2023-04-06T08:10:06;13.87;;;8.67;;
11709;SDS011;5911;51.036;6.972;2023-04-06T08:12:34;14.50;;;9.27;;
11709;SDS011;5911;51.036;6.972;2023-04-06T08:15:02;11.37;;;8.53;;
11709;SDS011;5911;51.036;6.972;2023-04-06T08:17:31;13.07;;;9.13;;
11709;SDS011;5911;51.036;6.972;2023-04-06T08:20:02;15.93;;;9.43;;
11709;SDS011;5911;51.036;6.972;2023-04-06T08:22:30;13.17;;;8.73;;
11709;SDS011;5911;51.036;6.972;2023-04-06T08:24:58;13.00;;;9.13;;
11709;SDS011;5911;51.036;6.972;2023-04-06T08:27:26;13.47;;;9.50;;
11709;SDS011;5911;51.036;6.972;2023-04-06T08:29:54;14.07;;;9.60;;
11709;SDS011;5911;51.036;6.972;2023-04-06T08:32:22;14.57;;;9.77;;
11709;SDS011;5911;51.036;6.972;2023-04-06T08:34:52;15.47;;;10.27;;
11709;SDS011;5911;51.036;6.972;2023-04-06T08:37:22;12.57;;;9.13;;
11709;SDS011;5911;51.036;6.972;2023-04-06T08:39:50;15.77;;;10.87;;
11709;SDS011;5911;51.036;6.972;2023-04-06T08:42:19;12.07;;;9.30;;
11709;SDS011;5911;51.036;6.972;2023-04-06T08:44:48;12.63;;;9.63;;
11709;SDS011;5911;51.036;6.972;2023-04-06T08:47:17;12.47;;;8.30;;
11709;SDS011;5911;51.036;6.972;2023-04-06T08:49:50;12.30;;;9.07;;
11709;SDS011;5911;51.036;6.972;2023-04-06T08:52:18;12.97;;;9.20;;
11709;SDS011;5911;51.036;6.972;2023-04-06T08:54:48;10.87;;;8.90;;
11709;SDS011;5911;51.036;6.972;2023-04-06T08:57:16;12.93;;;9.13;;
11709;SDS011;5911;51.036;6.972;2023-04-06T08:59:46;13.27;;;9.43;;
11709;SDS011;5911;51.036;6.972;2023-04-06T09:02:15;12.97;;;9.73;;
11709;SDS011;5911;51.036;6.972;2023-04-06T09:04:45;11.90;;;8.17;;
11709;SDS011;5911;51.036;6.972;2023-04-06T09:07:15;10.93;;;8.53;;
11709;SDS011;5911;51.036;6.972;2023-04-06T09:09:44;12.30;;;8.07;;
11709;SDS011;5911;51.036;6.972;2023-04-06T09:12:26;12.47;;;9.03;;
11709;SDS011;5911;51.036;6.972;2023-04-06T09:14:55;14.17;;;9.80;;
11709;SDS011;5911;51.036;6.972;2023-04-06T09:17:24;13.20;;;9.50;;
11709;SDS011;5911;51.036;6.972;2023-04-06T09:19:53;16.50;;;10.17;;
11709;SDS011;5911;51.036;6.972;2023-04-06T09:22:22;17.43;;;10.57;;
11709;SDS011;5911;51.036;6.972;2023-04-06T09:24:51;17.53;;;10.17;;
11709;SDS011;5911;51.036;6.972;2023-04-06T09:27:30;13.47;;;9.70;;
11709;SDS011;5911;51.036;6.972;2023-04-06T09:30:03;16.57;;;9.00;;
11709;SDS011;5911;51.036;6.972;2023-04-06T09:32:32;11.73;;;8.93;;
11709;SDS011;5911;51.036;6.972;2023-04-06T09:35:11;13.53;;;9.27;;
11709;SDS011;5911;51.036;6.972;2023-04-06T09:37:39;15.20;;;9.60;;
11709;SDS011;5911;51.036;6.972;2023-04-06T09:40:07;13.10;;;9.73;;
11709;SDS011;5911;51.036;6.972;2023-04-06T09:42:37;17.37;;;10.13;;
11709;SDS011;5911;51.036;6.972;2023-04-06T09:45:05;13.03;;;9.60;;
11709;SDS011;5911;51.036;6.972;2023-04-06T09:47:34;16.13;;;10.40;;
11709;SDS011;5911;51.036;6.972;2023-04-06T09:50:04;15.70;;;9.90;;
11709;SDS011;5911;51.036;6.972;2023-04-06T09:52:37;13.63;;;10.27;;
11709;SDS011;5911;51.036;6.972;2023-04-06T09:55:08;14.67;;;10.07;;
11709;SDS011;5911;51.036;6.972;2023-04-06T09:57:41;15.40;;;9.83;;
11709;SDS011;5911;51.036;6.972;2023-04-06T10:00:13;17.50;;;11.20;;
11709;SDS011;5911;51.036;6.972;2023-04-06T10:02:48;16.43;;;10.63;;
11709;SDS011;5911;51.036;6.972;2023-04-06T10:05:20;15.60;;;10.23;;
11709;SDS011;5911;51.036;6.972;2023-04-06T10:07:56;14.43;;;10.53;;
11709;SDS011;5911;51.036;6.972;2023-04-06T10:10:27;15.37;;;10.67;;
11709;SDS011;5911;51.036;6.972;2023-04-06T10:12:58;15.13;;;11.30;;
11709;SDS011;5911;51.036;6.972;2023-04-06T10:15:27;16.37;;;11.03;;
11709;SDS011;5911;51.036;6.972;2023-04-06T10:17:55;15.53;;;10.77;;
11709;SDS011;5911;51.036;6.972;2023-04-06T10:20:25;17.83;;;11.60;;
11709;SDS011;5911;51.036;6.972;2023-04-06T10:22:58;16.17;;;11.13;;
11709;SDS011;5911;51.036;6.972;2023-04-06T10:25:29;15.40;;;10.60;;
11709;SDS011;5911;51.036;6.972;2023-04-06T10:28:04;17.60;;;10.40;;
11709;SDS011;5911;51.036;6.972;2023-04-06T10:30:33;15.73;;;11.30;;
11709;SDS011;5911;51.036;6.972;2023-04-06T10:33:05;17.33;;;11.40;;
11709;SDS011;5911;51.036;6.972;2023-04-06T10:35:40;14.50;;;10.90;;
11709;SDS011;5911;51.036;6.972;2023-04-06T10:38:11;17.00;;;10.80;;
11709;SDS011;5911;51.036;6.972;2023-04-06T10:40:40;14.80;;;10.53;;
11709;SDS011;5911;51.036;6.972;2023-04-06T10:43:12;18.13;;;11.37;;
11709;SDS011;5911;51.036;6.972;2023-04-06T10:45:45;15.17;;;10.93;;
11709;SDS011;5911;51.036;6.972;2023-04-06T10:48:22;15.73;;;10.40;;
11709;SDS011;5911;51.036;6.972;2023-04-06T10:50:52;16.37;;;11.47;;
11709;SDS011;5911;51.036;6.972;2023-04-06T10:53:21;15.87;;;11.40;;
11709;SDS011;5911;51.036;6.972;2023-04-06T10:55:50;17.50;;;11.67;;
11709;SDS011;5911;51.036;6.972;2023-04-06T10:58:19;17.27;;;10.83;;
11709;SDS011;5911;51.036;6.972;2023-04-06T11:00:48;18.80;;;11.60;;
11709;SDS011;5911;51.036;6.972;2023-04-06T11:03:17;15.93;;;11.00;;
11709;SDS011;5911;51.036;6.972;2023-04-06T11:05:45;16.73;;;12.20;;
11709;SDS011;5911;51.036;6.972;2023-04-06T11:08:24;15.23;;;10.47;;
11709;SDS011;5911;51.036;6.972;2023-04-06T11:11:03;15.83;;;11.27;;
11709;SDS011;5911;51.036;6.972;2023-04-06T11:13:37;17.10;;;11.00;;
11709;SDS011;5911;51.036;6.972;2023-04-06T11:16:06;15.93;;;11.07;;
11709;SDS011;5911;51.036;6.972;2023-04-06T11:18:46;16.13;;;11.03;;
11709;SDS011;5911;51.036;6.972;2023-04-06T11:21:15;15.33;;;10.80;;
11709;SDS011;5911;51.036;6.972;2023-04-06T11:23:43;17.93;;;11.73;;
11709;SDS011;5911;51.036;6.972;2023-04-06T11:26:11;23.48;;;12.38;;
11709;SDS011;5911;51.036;6.972;2023-04-06T11:28:40;14.32;;;11.05;;
11709;SDS011;5911;51.036;6.972;2023-04-06T11:31:09;14.33;;;10.83;;
11709;SDS011;5911;51.036;6.972;2023-04-06T11:33:38;17.53;;;11.80;;
11709;SDS011;5911;51.036;6.972;2023-04-06T11:36:06;15.03;;;10.80;;
11709;SDS011;5911;51.036;6.972;2023-04-06T11:38:34;15.67;;;11.17;;
11709;SDS011;5911;51.036;6.972;2023-04-06T11:41:06;13.33;;;9.90;;
11709;SDS011;5911;51.036;6.972;2023-04-06T11:43:34;15.57;;;10.73;;
11709;SDS011;5911;51.036;6.972;2023-04-06T11:46:04;15.38;;;10.82;;
11709;SDS011;5911;51.036;6.972;2023-04-06T11:48:33;15.30;;;10.67;;
11709;SDS011;5911;51.036;6.972;2023-04-06T11:51:12;15.47;;;10.63;;
11709;SDS011;5911;51.036;6.972;2023-04-06T11:53:48;17.17;;;10.68;;
11709;SDS011;5911;51.036;6.972;2023-04-06T11:56:24;16.97;;;10.93;;
11709;SDS011;5911;51.036;6.972;2023-04-06T11:58:56;18.70;;;11.43;;
11709;SDS011;5911;51.036;6.972;2023-04-06T12:01:28;15.37;;;10.17;;
11709;SDS011;5911;51.036;6.972;2023-04-06T12:04:02;13.93;;;10.50;;
11709;SDS011;5911;51.036;6.972;2023-04-06T12:06:30;16.03;;;10.60;;
11709;SDS011;5911;51.036;6.972;2023-04-06T12:08:58;19.27;;;11.00;;
11709;SDS011;5911;51.036;6.972;2023-04-06T12:11:26;18.77;;;10.80;;
11709;SDS011;5911;51.036;6.972;2023-04-06T12:13:54;14.37;;;10.13;;
11709;SDS011;5911;51.036;6.972;2023-04-06T12:16:22;13.47;;;10.37;;
11709;SDS011;5911;51.036;6.972;2023-04-06T12:18:52;13.50;;;9.40;;
11709;SDS011;5911;51.036;6.972;2023-04-06T12:21:19;13.80;;;10.60;;
11709;SDS011;5911;51.036;6.972;2023-04-06T12:23:47;12.67;;;9.97;;
11709;SDS011;5911;51.036;6.972;2023-04-06T12:26:15;14.43;;;9.40;;
11709;SDS011;5911;51.036;6.972;2023-04-06T12:28:43;14.13;;;9.97;;
11709;SDS011;5911;51.036;6.972;2023-04-06T12:31:14;12.85;;;9.90;;
11709;SDS011;5911;51.036;6.972;2023-04-06T12:33:43;16.83;;;10.33;;
11709;SDS011;5911;51.036;6.972;2023-04-06T12:36:13;14.83;;;10.87;;
11709;SDS011;5911;51.036;6.972;2023-04-06T12:38:42;12.38;;;9.93;;
11709;SDS011;5911;51.036;6.972;2023-04-06T12:41:12;14.07;;;10.43;;
11709;SDS011;5911;51.036;6.972;2023-04-06T12:43:42;16.07;;;11.30;;
11709;SDS011;5911;51.036;6.972;2023-04-06T12:46:10;14.90;;;10.73;;
11709;SDS011;5911;51.036;6.972;2023-04-06T12:48:38;15.93;;;11.07;;
11709;SDS011;5911;51.036;6.972;2023-04-06T12:51:06;15.87;;;10.13;;
11709;SDS011;5911;51.036;6.972;2023-04-06T12:53:36;16.37;;;11.87;;
11709;SDS011;5911;51.036;6.972;2023-04-06T12:56:12;17.70;;;11.18;;
11709;SDS011;5911;51.036;6.972;2023-04-06T12:58:41;18.27;;;11.43;;
11709;SDS011;5911;51.036;6.972;2023-04-06T13:01:09;15.70;;;10.37;;
11709;SDS011;5911;51.036;6.972;2023-04-06T13:03:39;17.60;;;10.93;;
11709;SDS011;5911;51.036;6.972;2023-04-06T13:06:07;19.07;;;10.37;;
11709;SDS011;5911;51.036;6.972;2023-04-06T13:08:37;15.88;;;10.15;;
11709;SDS011;5911;51.036;6.972;2023-04-06T13:11:06;14.53;;;8.97;;
11709;SDS011;5911;51.036;6.972;2023-04-06T13:13:35;14.27;;;9.23;;
11709;SDS011;5911;51.036;6.972;2023-04-06T13:16:04;13.80;;;8.90;;
11709;SDS011;5911;51.036;6.972;2023-04-06T13:18:35;11.60;;;8.70;;
11709;SDS011;5911;51.036;6.972;2023-04-06T13:21:05;14.23;;;8.82;;
11709;SDS011;5911;51.036;6.972;2023-04-06T13:23:33;14.80;;;9.53;;
11709;SDS011;5911;51.036;6.972;2023-04-06T13:26:04;12.93;;;7.40;;
11709;SDS011;5911;51.036;6.972;2023-04-06T13:28:34;9.50;;;7.00;;
11709;SDS011;5911;51.036;6.972;2023-04-06T13:31:03;9.43;;;6.97;;
11709;SDS011;5911;51.036;6.972;2023-04-06T13:33:32;7.87;;;6.83;;
11709;SDS011;5911;51.036;6.972;2023-04-06T13:36:00;11.20;;;7.27;;
11709;SDS011;5911;51.036;6.972;2023-04-06T13:38:29;9.60;;;6.87;;
11709;SDS011;5911;51.036;6.972;2023-04-06T13:40:58;8.43;;;6.70;;
11709;SDS011;5911;51.036;6.972;2023-04-06T13:43:27;10.63;;;7.73;;
11709;SDS011;5911;51.036;6.972;2023-04-06T13:45:55;10.57;;;6.90;;
11709;SDS011;5911;51.036;6.972;2023-04-06T13:48:26;9.77;;;7.37;;
11709;SDS011;5911;51.036;6.972;2023-04-06T13:50:54;10.00;;;7.00;;
11709;SDS011;5911;51.036;6.972;2023-04-06T13:53:22;9.30;;;7.17;;
11709;SDS011;5911;51.036;6.972;2023-04-06T13:55:53;9.53;;;7.40;;
11709;SDS011;5911;51.036;6.972;2023-04-06T13:58:21;10.87;;;7.10;;
11709;SDS011;5911;51.036;6.972;2023-04-06T14:00:50;9.80;;;6.53;;
11709;SDS011;5911;51.036;6.972;2023-04-06T14:03:19;9.97;;;6.37;;
11709;SDS011;5911;51.036;6.972;2023-04-06T14:05:47;8.73;;;7.03;;
11709;SDS011;5911;51.036;6.972;2023-04-06T14:08:15;8.13;;;6.30;;
11709;SDS011;5911;51.036;6.972;2023-04-06T14:10:43;9.77;;;7.27;;
11709;SDS011;5911;51.036;6.972;2023-04-06T14:13:10;10.33;;;7.30;;
11709;SDS011;5911;51.036;6.972;2023-04-06T14:15:38;9.57;;;7.40;;
11709;SDS011;5911;51.036;6.972;2023-04-06T14:18:08;12.83;;;7.30;;
11709;SDS011;5911;51.036;6.972;2023-04-06T14:20:36;8.40;;;7.10;;
11709;SDS011;5911;51.036;6.972;2023-04-06T14:23:04;10.33;;;7.73;;
11709;SDS011;5911;51.036;6.972;2023-04-06T14:25:32;13.27;;;6.43;;
11709;SDS011;5911;51.036;6.972;2023-04-06T14:28:01;8.57;;;5.60;;
11709;SDS011;5911;51.036;6.972;2023-04-06T14:30:29;8.27;;;6.23;;
11709;SDS011;5911;51.036;6.972;2023-04-06T14:32:57;8.30;;;6.20;;
11709;SDS011;5911;51.036;6.972;2023-04-06T14:35:26;8.80;;;6.20;;
11709;SDS011;5911;51.036;6.972;2023-04-06T14:37:55;8.60;;;6.10;;
11709;SDS011;5911;51.036;6.972;2023-04-06T14:40:24;9.30;;;6.30;;
11709;SDS011;5911;51.036;6.972;2023-04-06T14:42:52;10.87;;;6.90;;
11709;SDS011;5911;51.036;6.972;2023-04-06T14:45:21;7.80;;;6.70;;
11709;SDS011;5911;51.036;6.972;2023-04-06T14:47:49;8.13;;;6.27;;
11709;SDS011;5911;51.036;6.972;2023-04-06T14:50:17;7.33;;;5.80;;
11709;SDS011;5911;51.036;6.972;2023-04-06T14:52:46;7.93;;;6.13;;
11709;SDS011;5911;51.036;6.972;2023-04-06T14:55:14;6.67;;;5.40;;
11709;SDS011;5911;51.036;6.972;2023-04-06T14:57:42;6.60;;;4.97;;
11709;SDS011;5911;51.036;6.972;2023-04-06T15:00:10;6.23;;;5.37;;
11709;SDS011;5911;51.036;6.972;2023-04-06T15:02:39;5.87;;;5.37;;
11709;SDS011;5911;51.036;6.972;2023-04-06T15:05:09;6.63;;;5.93;;
11709;SDS011;5911;51.036;6.972;2023-04-06T15:07:37;9.27;;;6.03;;